ダブリン の空港の天気 - METARとTAF

ダブリン空港 ( EIDW / DUB ) - アイルランド ダブリン
飛行場実況気象(Metar)
観測時間01/21 17:30 GMT (01/21 17:30 UTC)
風向・風速西 15m/s 瞬間風速21m/s
視程10km以上
天気現象
少しの雲 雲底高度 370m
全天の8割程度の雲 雲底高度 910m
気温10℃
湿度82%
気圧1001hPa
METAREIDW 211730Z 26029G40KT 9999 FEW012 BKN030 10/07 Q1001 NOSIG
過去の天気等 Google飛行場航空写真 Wunderground天気予報

過去48時間のMETAR

飛行場予報(TAF)
発表時間: 1/21 17:00 GMT (1/21 17:00 UTC)
予報対象時間: 21日18時 GMT ~ 22日18時 GMT
風向・風速西南西 10m/s
視程10km以上
少しの雲 雲底高度 300m
全天の8割程度の雲 雲底高度 910m
21日18時 GMT ~ 21日22時 GMT に一時的に
風向・風速西 13m/s 瞬間風速 20m/s
21日22時 GMT ~ 21日24時 GMT に一時的に
風向・風速西 10m/s 瞬間風速 15m/s
21日23時 GMT ~ 22日1時 GMT に徐々に
風向・風速西 8m/s
22日10時 GMT ~ 22日14時 GMT に一時的に
風向・風速西 9m/s 瞬間風速 14m/s
TAF EIDW 211700Z 2118/2218 25020KT 9999 FEW010 BKN030
TEMPO 2118/2122 26025G38KT
TEMPO 2122/2124 26020G30KT
BECMG 2123/2201 26015KT
TEMPO 2210/2214 27017G27KT